Архив погоды в Выксе

Метеограмма Выкса
Среда, 22 Мая
Время местн. Темп Ветер Видим Явления Облачность нижн/средн/верх Атм. давл. Влжн Точка росы ВНГО R Сост. почвы Tg s
Напр Скр Прв ур.ст ур.м изм
03:00 +9.9° штиль 0 0 10 км дождь преимущественно облачно 752 762 -1 80% +6.7° 1 км - - - -
00:00 +12° Ю 2 3 10 км - облачно с прояснениями 753 763 -0.3 54% +2.9° - - - - -
Вторник, 21 Мая
Время местн. Темп Ветер Видим Явления Облачность нижн/средн/верх Атм. давл. Влжн Точка росы ВНГО R Сост. почвы Tg s
Напр Скр Прв ур.ст ур.м изм
21:00 +12.5° штиль 0 0 10 км - преимущественно облачно 753 764 -1.1 59% +4.6° - - - - -
18:00 +18.4° В 2 3 10 км - преимущественно облачно 754 765 -1.2 32% +1.5° - - - - -
15:00 +18.6° штиль 0 0 10 км - преимущественно облачно 756 766 -0.6 29% +0.4° - - - - -
12:00 +19.2° З 2 4 10 км - преимущественно облачно 756 766 -0.5 28% +0.2° - - - - -
09:00 +16° С 1 2 10 км - переменная облачность 757 767 +0.8 37% +1.5° более 2.5 км - - - -
06:00 +7.6° штиль 0 0 10 км - ясно 756 766 +0.5 78% +4.1° более 2.5 км - Влажная (без луж) - -
03:00 +2.2° Ю,Ю-З 1 2 10 км - ясно 755 766 +0.5 89% +0.6° более 2.5 км - - - -
00:00 +5.9° штиль 0 0 10 км - ясно 755 765 +0.4 74% +1.7° более 2.5 км - - - -
Понедельник, 20 Мая
Время местн. Темп Ветер Видим Явления Облачность нижн/средн/верх Атм. давл. Влжн Точка росы ВНГО R Сост. почвы Tg s
Напр Скр Прв ур.ст ур.м изм
21:00 +10.7° З,С-З 1 2 10 км - ясно 755 765 -0.4 54% +1.9° более 2.5 км - - - -
18:00 +17.6° С 5 8 10 км - ясно 755 765 -0.7 29% -0.7° более 2.5 км 0 - - -
15:00 +17.8° З,С-З 4 7 10 км - переменная облачность 756 766 -0.6 30% -0.2° 1.5 км - - - -
12:00 +15.3° С,С-З 4 7 10 км - переменная облачность 756 766 -0.7 33% -0.7° 1.5 км - - - -
09:00 +12.2° С-З 4 6 10 км - переменная облачность 757 767 +0.4 42% -0.2° более 2.5 км - - - -
06:00 +4.7° штиль 0 0 10 км - ясно 756 767 +0.8 87% +2.7° более 2.5 км - Влажная (без луж) - -
03:00 +1.2° Ю,Ю-З 1 1 10 км - ясно 756 766 +0.6 90% -0.2° более 2.5 км - - - -
00:00 +3.7° З,С-З 1 1 10 км - ясно 755 766 +1.2 75% -0.3° более 2.5 км - - - -
Воскресенье, 19 Мая
Время местн. Темп Ветер Видим Явления Облачность нижн/средн/верх Атм. давл. Влжн Точка росы ВНГО R Сост. почвы Tg s
Напр Скр Прв ур.ст ур.м изм
21:00 +10.7° С 2 4 10 км - ясно 754 764 +1.3 41% -1.9° более 2.5 км - - - -
18:00 +15.3° С 5 9 10 км - переменная облачность 753 763 +0.5 32% -1.2° 1.5 км - - - -
15:00 +16.1° С,С-З 6 10 10 км - переменная облачность 752 762 -0.3 32% -0.5° 1.5 км - - - -
12:00 +14.8° С-З 6 10 10 км - переменная облачность 752 763 -0.1 36% -0.2° 1 км - - - -
09:00 +11.2° С,С-З 4 6 10 км - облачно с прояснениями 753 763 +0.2 46% 1 км - - - -
06:00 +7.2° С,С-З 2 5 10 км - ясно 752 763 +1.1 81% +4.1° более 2.5 км - Влажная (без луж) - -
03:00 +6.6° З 1 2 10 км - ясно 751 762 -0.7 71% +1.7° более 2.5 км - - - -
00:00 +10.1° Ю-З 3 4 10 км - ясно 752 762 +0.1 50% +0.2° более 2.5 км - - - -